createdAt,value
2018-07-19T00:01:59.535Z,46.50
2018-07-19T00:04:28.093Z,46.90
2018-07-19T00:06:57.354Z,46.70
2018-07-19T00:09:25.952Z,46.80
2018-07-19T00:11:54.587Z,46.90
2018-07-19T00:14:23.141Z,47.60
2018-07-19T00:16:51.828Z,47.10
2018-07-19T00:19:20.450Z,47.10
2018-07-19T00:21:49.081Z,47.30
2018-07-19T00:24:17.887Z,47.30
2018-07-19T00:26:46.665Z,47.40
2018-07-19T00:29:15.212Z,47.50
2018-07-19T00:31:43.779Z,47.50
2018-07-19T00:36:40.647Z,47.90
2018-07-19T00:39:09.567Z,47.80
2018-07-19T00:41:38.768Z,47.90
2018-07-19T00:44:07.399Z,48.50
2018-07-19T00:46:36.055Z,47.90
2018-07-19T00:49:04.623Z,48.00
2018-07-19T00:51:33.235Z,48.10
2018-07-19T00:54:02.215Z,48.20
2018-07-19T00:56:30.829Z,48.30
2018-07-19T00:58:59.367Z,48.40
2018-07-19T01:01:27.966Z,48.40
2018-07-19T01:03:56.580Z,49.10
2018-07-19T01:06:25.137Z,48.60
2018-07-19T01:08:53.806Z,48.70
2018-07-19T01:11:24.126Z,48.70
2018-07-19T01:13:53.586Z,48.80
2018-07-19T01:16:22.362Z,48.90
2018-07-19T01:18:51.075Z,48.80
2018-07-19T01:21:19.698Z,48.90
2018-07-19T01:23:48.695Z,49.00
2018-07-19T01:26:17.658Z,49.00
2018-07-19T01:28:46.543Z,48.90
2018-07-19T01:31:16.063Z,49.00
2018-07-19T01:33:44.599Z,49.00
2018-07-19T01:36:13.268Z,49.00
2018-07-19T01:38:42.289Z,48.90
2018-07-19T01:41:22.674Z,48.90
2018-07-19T01:43:51.211Z,48.90
2018-07-19T01:46:19.942Z,48.90
2018-07-19T01:48:49.122Z,49.40
2018-07-19T01:51:18.258Z,48.70
2018-07-19T01:53:47.194Z,48.70
2018-07-19T01:56:16.096Z,48.60
2018-07-19T01:58:44.724Z,48.40
2018-07-19T02:01:13.736Z,48.40
2018-07-19T02:03:42.525Z,48.50
2018-07-19T02:06:11.095Z,48.40
2018-07-19T02:08:40.803Z,48.30
2018-07-19T02:11:09.372Z,48.20
2018-07-19T02:13:40.388Z,48.20
2018-07-19T02:16:11.159Z,48.40
2018-07-19T02:18:39.971Z,48.40
2018-07-19T02:21:08.564Z,48.50
2018-07-19T02:23:37.473Z,48.50
2018-07-19T02:26:06.178Z,48.50
2018-07-19T02:28:35.405Z,48.60
2018-07-19T02:31:04.637Z,48.60
2018-07-19T02:33:33.254Z,48.60
2018-07-19T02:36:03.337Z,48.60
2018-07-19T02:38:32.020Z,48.60
2018-07-19T02:41:00.588Z,48.60
2018-07-19T02:43:29.357Z,48.60
2018-07-19T02:45:58.046Z,48.50
2018-07-19T02:48:26.662Z,49.10
2018-07-19T02:50:55.423Z,48.60
2018-07-19T02:53:24.062Z,48.60
2018-07-19T02:55:52.679Z,48.70
2018-07-19T02:58:21.439Z,48.80
2018-07-19T03:00:50.553Z,48.90
2018-07-19T03:03:19.640Z,48.80
2018-07-19T03:05:48.589Z,48.80
2018-07-19T03:08:17.409Z,48.80
2018-07-19T03:10:46.007Z,48.70
2018-07-19T03:13:15.133Z,48.70
2018-07-19T03:15:43.802Z,48.80
2018-07-19T03:18:12.361Z,48.90
2018-07-19T03:20:41.201Z,48.90
2018-07-19T03:23:10.106Z,48.90
2018-07-19T03:25:39.269Z,48.90
2018-07-19T03:28:08.055Z,48.80
2018-07-19T03:30:37.164Z,48.80
2018-07-19T03:33:05.744Z,49.00
2018-07-19T03:35:34.544Z,48.90
2018-07-19T03:38:03.658Z,49.00
2018-07-19T03:40:32.317Z,49.10
2018-07-19T03:43:01.220Z,49.30
2018-07-19T03:45:29.946Z,49.20
2018-07-19T03:47:59.300Z,49.20
2018-07-19T03:52:56.481Z,49.40
2018-07-19T03:55:25.177Z,49.40
2018-07-19T03:57:53.849Z,49.40
2018-07-19T04:00:22.484Z,49.50
2018-07-19T04:02:51.081Z,49.50
2018-07-19T04:05:19.704Z,49.60
2018-07-19T04:07:48.628Z,49.70
2018-07-19T04:10:17.307Z,49.70
2018-07-19T04:12:46.339Z,49.70
2018-07-19T04:15:14.889Z,49.80
2018-07-19T04:17:47.887Z,49.70
2018-07-19T04:20:16.535Z,49.80
2018-07-19T04:22:45.671Z,49.90
2018-07-19T04:25:14.682Z,49.90
2018-07-19T04:27:43.561Z,50.00
2018-07-19T04:30:12.207Z,50.00
2018-07-19T04:32:41.305Z,49.90
2018-07-19T04:35:10.348Z,50.00
2018-07-19T04:37:39.403Z,50.00
2018-07-19T04:40:08.914Z,50.10
2018-07-19T04:45:06.473Z,50.10
2018-07-19T04:47:35.074Z,50.20
2018-07-19T04:50:03.946Z,50.40
2018-07-19T04:52:32.577Z,50.30
2018-07-19T04:55:01.204Z,50.30
2018-07-19T04:57:29.899Z,50.00
2018-07-19T05:02:26.712Z,49.40
2018-07-19T05:04:55.330Z,49.80
2018-07-19T05:07:23.919Z,49.50
2018-07-19T05:09:52.638Z,49.00
2018-07-19T05:12:21.273Z,48.90
2018-07-19T05:14:49.944Z,49.00
2018-07-19T05:17:18.574Z,48.70
2018-07-19T05:19:47.623Z,48.50
2018-07-19T05:22:16.506Z,48.80
2018-07-19T05:24:45.447Z,48.80
2018-07-19T05:27:14.224Z,48.50
2018-07-19T05:29:43.239Z,48.30
2018-07-19T05:32:11.774Z,48.30
2018-07-19T05:34:41.053Z,48.10
2018-07-19T05:37:09.963Z,48.40
2018-07-19T05:39:38.704Z,48.10
2018-07-19T05:44:35.491Z,48.10
2018-07-19T05:47:04.061Z,48.20
2018-07-19T05:49:32.802Z,48.00
2018-07-19T05:52:01.272Z,47.80
2018-07-19T05:54:29.744Z,47.70
2018-07-19T05:56:58.352Z,47.50
2018-07-19T05:59:26.797Z,47.50
2018-07-19T06:01:55.428Z,47.30
2018-07-19T06:04:24.007Z,47.10
2018-07-19T06:06:52.699Z,46.80
2018-07-19T06:09:21.491Z,46.70
2018-07-19T06:11:50.015Z,46.70
2018-07-19T06:14:19.676Z,46.70
2018-07-19T06:16:48.290Z,46.50
2018-07-19T06:19:16.773Z,46.70
2018-07-19T06:21:45.304Z,46.40
2018-07-19T06:24:14.017Z,46.00
2018-07-19T06:26:42.775Z,46.10
2018-07-19T06:29:11.314Z,46.10
2018-07-19T06:31:40.432Z,45.70
2018-07-19T06:34:09.046Z,45.40
2018-07-19T06:36:37.697Z,45.50
2018-07-19T06:39:07.992Z,45.80
2018-07-19T06:41:36.619Z,44.70
2018-07-19T06:44:05.783Z,44.70
2018-07-19T06:49:02.637Z,43.40
2018-07-19T06:51:31.276Z,43.60
2018-07-19T06:54:00.096Z,43.50
2018-07-19T06:58:56.981Z,43.60
2018-07-19T07:01:25.664Z,43.20
2018-07-19T07:03:54.556Z,43.60
2018-07-19T07:06:23.119Z,43.70
2018-07-19T07:08:51.818Z,43.70
2018-07-19T07:11:20.979Z,43.90
2018-07-19T07:16:18.791Z,43.90
2018-07-19T07:21:15.973Z,43.70
2018-07-19T07:23:45.179Z,43.30
2018-07-19T07:26:13.795Z,43.20
2018-07-19T07:28:42.990Z,43.20
2018-07-19T07:31:11.840Z,43.70
2018-07-19T07:33:40.387Z,43.30
2018-07-19T07:36:08.916Z,43.40
2018-07-19T07:38:37.531Z,43.30
2018-07-19T07:41:06.233Z,42.90
2018-07-19T07:43:34.771Z,42.50
2018-07-19T07:46:03.437Z,42.20
2018-07-19T07:48:31.938Z,42.20
2018-07-19T07:51:00.539Z,41.80
2018-07-19T07:53:29.082Z,42.00
2018-07-19T07:55:57.691Z,41.70
2018-07-19T07:58:26.528Z,41.90
2018-07-19T08:00:55.071Z,41.40
2018-07-19T08:03:23.634Z,40.90
2018-07-19T08:05:52.219Z,40.80
2018-07-19T08:08:21.360Z,40.40
2018-07-19T08:10:50.125Z,41.40
2018-07-19T08:13:19.129Z,41.00
2018-07-19T08:15:47.725Z,40.60
2018-07-19T08:18:17.056Z,40.20
2018-07-19T08:20:45.605Z,39.10
2018-07-19T08:23:14.197Z,39.20
2018-07-19T08:25:43.122Z,38.80
2018-07-19T08:28:12.330Z,39.10
2018-07-19T08:30:41.342Z,39.00
2018-07-19T08:33:09.935Z,38.70
2018-07-19T08:35:38.628Z,37.90
2018-07-19T08:38:07.196Z,38.50
2018-07-19T08:40:35.760Z,37.70
2018-07-19T08:43:04.358Z,36.50
2018-07-19T08:45:32.990Z,37.00
2018-07-19T08:48:01.511Z,36.90
2018-07-19T08:50:30.210Z,37.20
2018-07-19T08:52:58.792Z,36.40
2018-07-19T08:55:27.425Z,36.10
2018-07-19T08:57:56.160Z,36.50
2018-07-19T09:00:25.180Z,36.50
2018-07-19T09:02:54.224Z,36.50
2018-07-19T09:05:23.369Z,35.60
2018-07-19T09:07:51.944Z,36.30
2018-07-19T09:10:20.571Z,36.10
2018-07-19T09:12:49.720Z,36.60
2018-07-19T09:15:18.327Z,36.20
2018-07-19T09:17:46.975Z,36.60
2018-07-19T09:20:15.573Z,36.30
2018-07-19T09:22:44.125Z,36.40
2018-07-19T09:25:12.995Z,35.40
2018-07-19T09:27:41.653Z,35.90
2018-07-19T09:30:10.296Z,35.30
2018-07-19T09:32:39.175Z,35.50
2018-07-19T09:35:07.868Z,35.30
2018-07-19T09:37:36.480Z,35.30
2018-07-19T09:40:05.255Z,34.90
2018-07-19T09:42:33.787Z,35.50
2018-07-19T09:45:02.758Z,35.70
2018-07-19T09:47:31.316Z,35.80
2018-07-19T09:49:59.905Z,34.40
2018-07-19T09:52:28.415Z,35.20
2018-07-19T09:54:59.900Z,35.70
2018-07-19T09:57:29.316Z,35.00
2018-07-19T09:59:57.888Z,35.10
2018-07-19T10:02:26.610Z,35.40
2018-07-19T10:04:55.282Z,35.40
2018-07-19T10:07:24.028Z,34.60
2018-07-19T10:09:52.759Z,34.50
2018-07-19T10:12:21.351Z,34.10
2018-07-19T10:14:50.584Z,34.20
2018-07-19T10:17:19.338Z,34.90
2018-07-19T10:19:48.032Z,35.00
2018-07-19T10:22:17.125Z,34.30
2018-07-19T10:24:45.700Z,34.20
2018-07-19T10:27:14.275Z,34.10
2018-07-19T10:29:42.897Z,34.60
2018-07-19T10:32:11.431Z,33.70
2018-07-19T10:34:41.360Z,33.00
2018-07-19T10:37:09.943Z,33.30
2018-07-19T10:39:38.768Z,33.80
2018-07-19T10:42:07.327Z,33.00
2018-07-19T10:44:35.884Z,33.00
2018-07-19T10:47:04.484Z,33.30
2018-07-19T10:49:32.997Z,33.10
2018-07-19T10:52:01.551Z,33.00
2018-07-19T10:54:30.122Z,32.70
2018-07-19T10:56:58.661Z,32.60
2018-07-19T10:59:27.185Z,32.70
2018-07-19T11:01:55.838Z,32.80
2018-07-19T11:04:24.437Z,32.20
2018-07-19T11:06:53.182Z,32.40
2018-07-19T11:09:22.465Z,32.10
2018-07-19T11:11:51.070Z,32.50
2018-07-19T11:14:19.668Z,32.30
2018-07-19T11:16:48.248Z,31.70
2018-07-19T11:19:16.868Z,32.20
2018-07-19T11:21:45.381Z,32.50
2018-07-19T11:24:14.958Z,32.10
2018-07-19T11:26:43.509Z,31.90
2018-07-19T11:29:12.192Z,31.90
2018-07-19T11:31:41.708Z,31.60
2018-07-19T11:34:10.240Z,31.10
2018-07-19T11:36:39.187Z,30.90
2018-07-19T11:39:08.660Z,30.90
2018-07-19T11:41:37.370Z,31.30
2018-07-19T11:44:06.340Z,31.80
2018-07-19T11:46:34.924Z,31.60
2018-07-19T11:49:03.558Z,31.60
2018-07-19T11:51:32.190Z,31.50
2018-07-19T11:54:00.758Z,31.80
2018-07-19T11:56:29.288Z,30.80
2018-07-19T11:58:57.847Z,31.00
2018-07-19T12:01:26.469Z,30.60
2018-07-19T12:03:54.986Z,30.30
2018-07-19T12:08:52.436Z,30.70
2018-07-19T12:11:21.652Z,29.70
2018-07-19T12:13:50.231Z,29.80
2018-07-19T12:16:18.976Z,30.50
2018-07-19T12:18:47.504Z,30.40
2018-07-19T12:21:16.087Z,30.00
2018-07-19T12:23:44.656Z,30.00
2018-07-19T12:26:13.257Z,30.00
2018-07-19T12:28:48.243Z,30.20
2018-07-19T12:31:17.305Z,30.20
2018-07-19T12:33:45.923Z,29.80
2018-07-19T12:36:14.993Z,29.90
2018-07-19T12:38:43.590Z,30.00
2018-07-19T12:41:12.290Z,29.80
2018-07-19T12:43:41.076Z,29.70
2018-07-19T12:46:09.615Z,29.50
2018-07-19T12:48:38.771Z,29.80
2018-07-19T12:51:07.422Z,29.70
2018-07-19T12:53:36.384Z,30.00
2018-07-19T12:56:05.607Z,29.90
2018-07-19T12:58:34.190Z,30.20
2018-07-19T13:01:02.810Z,29.00
2018-07-19T13:03:31.400Z,28.60
2018-07-19T13:05:59.996Z,28.00
2018-07-19T13:08:28.587Z,28.30
2018-07-19T13:10:57.188Z,29.00
2018-07-19T13:13:25.739Z,29.10
2018-07-19T13:15:54.559Z,29.50
2018-07-19T13:18:23.205Z,29.30
2018-07-19T13:23:20.076Z,28.80
2018-07-19T13:25:49.663Z,29.00
2018-07-19T13:28:19.240Z,29.30
2018-07-19T13:30:48.022Z,29.40
2018-07-19T13:33:16.942Z,28.90
2018-07-19T13:35:45.484Z,28.80
2018-07-19T13:38:14.030Z,28.90
2018-07-19T13:40:42.641Z,28.90
2018-07-19T13:43:11.492Z,28.90
2018-07-19T13:45:40.525Z,28.40
2018-07-19T13:48:09.048Z,28.60
2018-07-19T13:50:39.057Z,28.60
2018-07-19T13:53:32.324Z,28.20
2018-07-19T13:56:00.839Z,28.10
2018-07-19T13:58:29.530Z,28.20
2018-07-19T14:00:58.132Z,27.90
2018-07-19T14:03:26.669Z,27.90
2018-07-19T14:05:56.382Z,27.80
2018-07-19T14:08:25.174Z,28.40
2018-07-19T14:10:54.199Z,27.40
2018-07-19T14:13:22.744Z,28.00
2018-07-19T14:15:52.579Z,28.00
2018-07-19T14:20:50.336Z,28.20
2018-07-19T14:23:19.292Z,27.80
2018-07-19T14:25:48.087Z,28.20
2018-07-19T14:28:17.161Z,27.70
2018-07-19T14:30:45.926Z,27.70
2018-07-19T14:33:17.527Z,27.70
2018-07-19T14:35:50.029Z,27.60
2018-07-19T14:38:20.860Z,27.60
2018-07-19T14:40:50.901Z,27.00
2018-07-19T14:43:20.059Z,27.40
2018-07-19T14:45:48.975Z,26.90
2018-07-19T14:48:17.569Z,27.00
2018-07-19T14:50:46.128Z,27.20
2018-07-19T14:53:14.764Z,27.10
2018-07-19T14:55:43.965Z,27.00
2018-07-19T14:58:12.457Z,26.30
2018-07-19T15:00:41.081Z,26.70
2018-07-19T15:03:09.692Z,26.70
2018-07-19T15:05:39.118Z,26.40
2018-07-19T15:08:08.035Z,27.00
2018-07-19T15:10:36.579Z,26.70
2018-07-19T15:13:05.129Z,26.50
2018-07-19T15:15:33.648Z,26.90
2018-07-19T15:18:02.371Z,27.30
2018-07-19T15:20:31.083Z,27.10
2018-07-19T15:22:59.665Z,26.70
2018-07-19T15:25:28.166Z,26.50
2018-07-19T15:27:56.760Z,26.30
2018-07-19T15:30:25.634Z,26.40
2018-07-19T15:32:54.216Z,26.40
2018-07-19T15:35:22.819Z,25.80
2018-07-19T15:37:51.383Z,26.20
2018-07-19T15:40:20.022Z,26.00
2018-07-19T15:42:48.620Z,25.90
2018-07-19T15:45:17.326Z,25.70
2018-07-19T15:47:45.927Z,26.00
2018-07-19T15:50:14.552Z,25.60
2018-07-19T15:52:43.174Z,26.00
2018-07-19T15:55:11.801Z,25.90
2018-07-19T15:57:40.431Z,25.80
2018-07-19T16:00:08.986Z,26.00
2018-07-19T16:02:37.743Z,25.90
2018-07-19T16:05:06.628Z,25.90
2018-07-19T16:07:35.147Z,25.30
2018-07-19T16:10:04.154Z,25.50
2018-07-19T16:12:32.668Z,25.50
2018-07-19T16:15:01.186Z,25.40
2018-07-19T16:17:30.189Z,25.30
2018-07-19T16:19:59.111Z,25.50
2018-07-19T16:22:27.770Z,25.50
2018-07-19T16:24:56.520Z,25.80
2018-07-19T16:27:25.012Z,25.40
2018-07-19T16:29:53.627Z,25.30
2018-07-19T16:32:22.268Z,25.10
2018-07-19T16:37:19.124Z,25.80
2018-07-19T16:39:48.055Z,25.20
2018-07-19T16:42:17.938Z,25.40
2018-07-19T16:44:46.590Z,25.70
2018-07-19T16:47:15.739Z,24.70
2018-07-19T16:49:44.646Z,25.10
2018-07-19T16:52:13.304Z,25.40
2018-07-19T16:54:41.900Z,26.40
2018-07-19T16:57:11.118Z,25.90
2018-07-19T16:59:40.791Z,25.60
2018-07-19T17:02:10.689Z,25.50
2018-07-19T17:04:39.372Z,26.20
2018-07-19T17:07:08.748Z,26.30
2018-07-19T17:09:37.644Z,25.90
2018-07-19T17:12:06.376Z,25.90
2018-07-19T17:14:34.897Z,25.90
2018-07-19T17:17:03.618Z,25.70
2018-07-19T17:19:33.830Z,25.80
2018-07-19T17:22:02.596Z,25.60
2018-07-19T17:24:31.162Z,25.50
2018-07-19T17:26:59.915Z,25.50
2018-07-19T17:29:28.494Z,25.50
2018-07-19T17:31:57.213Z,25.90
2018-07-19T17:34:25.797Z,26.40
2018-07-19T17:36:54.899Z,26.50
2018-07-19T17:39:23.489Z,26.50
2018-07-19T17:41:52.854Z,26.60
2018-07-19T17:44:22.060Z,26.90
2018-07-19T17:46:51.318Z,26.90
2018-07-19T17:49:19.912Z,26.50
2018-07-19T17:51:48.713Z,26.40
2018-07-19T17:54:17.352Z,26.80
2018-07-19T17:56:45.874Z,26.80
2018-07-19T17:59:14.926Z,27.00
2018-07-19T18:05:16.188Z,26.80
2018-07-19T18:07:44.748Z,26.90
2018-07-19T18:10:13.620Z,26.90
2018-07-19T18:12:42.236Z,27.00
2018-07-19T18:15:11.245Z,27.30
2018-07-19T18:17:40.653Z,27.30
2018-07-19T18:20:09.665Z,27.20
2018-07-19T18:22:38.285Z,27.30
2018-07-19T18:25:07.200Z,27.50
2018-07-19T18:27:36.504Z,27.80
2018-07-19T18:30:07.604Z,28.50
2018-07-19T18:32:36.160Z,28.10
2018-07-19T18:35:04.782Z,28.20
2018-07-19T18:37:49.567Z,28.40
2018-07-19T18:40:18.507Z,28.50
2018-07-19T18:42:47.075Z,28.90
2018-07-19T18:45:15.840Z,28.90
2018-07-19T18:47:44.547Z,29.00
2018-07-19T18:50:13.301Z,29.10
2018-07-19T18:52:42.331Z,29.60
2018-07-19T18:55:10.931Z,29.50
2018-07-19T18:57:39.728Z,30.00
2018-07-19T19:00:08.614Z,30.00
2018-07-19T19:02:37.975Z,30.20
2018-07-19T19:05:06.651Z,30.00
2018-07-19T19:07:35.379Z,30.80
2018-07-19T19:10:05.077Z,30.30
2018-07-19T19:12:37.777Z,30.50
2018-07-19T19:15:08.661Z,30.50
2018-07-19T19:17:39.302Z,30.50
2018-07-19T19:20:08.183Z,30.70
2018-07-19T19:22:36.928Z,31.10
2018-07-19T19:25:06.056Z,31.00
2018-07-19T19:27:34.973Z,31.70
2018-07-19T19:32:33.731Z,31.20
2018-07-19T19:35:04.832Z,31.40
2018-07-19T19:37:36.094Z,31.50
2018-07-19T19:40:07.060Z,31.60
2018-07-19T19:42:35.841Z,31.70
2018-07-19T19:45:04.665Z,31.80
2018-07-19T19:47:33.134Z,32.00
2018-07-19T19:50:02.062Z,32.40
2018-07-19T19:54:59.287Z,32.40
2018-07-19T19:57:28.711Z,32.40
2018-07-19T19:59:57.587Z,32.50
2018-07-19T20:02:26.873Z,32.50
2018-07-19T20:04:56.932Z,32.80
2018-07-19T20:07:25.717Z,33.00
2018-07-19T20:12:24.280Z,33.30
2018-07-19T20:14:53.226Z,33.20
2018-07-19T20:17:22.958Z,33.20
2018-07-19T20:19:52.559Z,33.40
2018-07-19T20:22:21.443Z,33.40
2018-07-19T20:24:50.122Z,33.50
2018-07-19T20:27:19.791Z,33.60
2018-07-19T20:29:48.783Z,33.70
2018-07-19T20:32:17.903Z,33.80
2018-07-19T20:34:48.348Z,34.00
2018-07-19T20:37:17.480Z,34.10
2018-07-19T20:39:46.452Z,34.20
2018-07-19T20:42:15.070Z,34.30
2018-07-19T20:47:12.249Z,34.50
2018-07-19T20:49:41.165Z,34.60
2018-07-19T20:52:10.087Z,34.70
2018-07-19T20:54:39.515Z,34.90
2018-07-19T20:57:08.070Z,35.70
2018-07-19T20:59:36.756Z,35.20
2018-07-19T21:02:05.743Z,35.20
2018-07-19T21:04:34.414Z,35.30
2018-07-19T21:07:03.216Z,35.30
2018-07-19T21:09:31.931Z,35.40
2018-07-19T21:12:00.496Z,35.80
2018-07-19T21:14:29.235Z,35.90
2018-07-19T21:16:59.114Z,35.80
2018-07-19T21:19:27.734Z,35.90
2018-07-19T21:21:56.327Z,36.00
2018-07-19T21:24:25.265Z,36.10
2018-07-19T21:26:54.531Z,36.10
2018-07-19T21:29:23.218Z,36.20
2018-07-19T21:31:51.968Z,36.30
2018-07-19T21:34:21.327Z,36.50
2018-07-19T21:36:51.547Z,36.50
2018-07-19T21:39:20.746Z,36.60
2018-07-19T21:41:50.326Z,36.90
2018-07-19T21:44:19.071Z,37.00
2018-07-19T21:46:48.541Z,36.90
2018-07-19T21:49:17.134Z,37.00
2018-07-19T21:51:45.747Z,37.10
2018-07-19T21:54:14.367Z,37.30
2018-07-19T21:56:42.976Z,37.30
2018-07-19T21:59:11.516Z,37.40
2018-07-19T22:01:44.475Z,37.40
2018-07-19T22:06:41.825Z,37.40
2018-07-19T22:09:11.668Z,37.50
2018-07-19T22:11:41.342Z,37.50
2018-07-19T22:14:09.856Z,37.60
2018-07-19T22:16:40.309Z,38.10
2018-07-19T22:19:09.052Z,37.80
2018-07-19T22:21:38.876Z,37.80
2018-07-19T22:24:07.493Z,37.90
2018-07-19T22:26:36.273Z,38.10
2018-07-19T22:29:04.839Z,38.10
2018-07-19T22:31:33.506Z,38.20
2018-07-19T22:34:02.238Z,38.20
2018-07-19T22:36:31.398Z,38.30
2018-07-19T22:39:00.034Z,38.30
2018-07-19T22:41:29.112Z,38.50
2018-07-19T22:43:57.973Z,38.60
2018-07-19T22:46:26.513Z,38.70
2018-07-19T22:48:56.751Z,38.70
2018-07-19T22:51:25.651Z,38.70
2018-07-19T22:53:54.208Z,38.80
2018-07-19T22:56:23.547Z,38.70
2018-07-19T22:58:52.391Z,38.70
2018-07-19T23:01:20.998Z,38.80
2018-07-19T23:03:49.849Z,38.90
2018-07-19T23:06:18.460Z,39.00
2018-07-19T23:11:16.375Z,39.10
2018-07-19T23:13:45.299Z,39.10
2018-07-19T23:16:14.013Z,39.10
2018-07-19T23:18:42.560Z,39.20
2018-07-19T23:21:11.153Z,39.20
2018-07-19T23:23:39.816Z,39.40
2018-07-19T23:26:08.625Z,39.40
2018-07-19T23:28:37.313Z,39.50
2018-07-19T23:31:06.393Z,39.60
2018-07-19T23:33:35.023Z,39.70
2018-07-19T23:36:09.610Z,39.60
2018-07-19T23:38:44.648Z,39.70
2018-07-19T23:41:17.516Z,39.70
2018-07-19T23:43:49.038Z,39.70
2018-07-19T23:46:26.088Z,40.00
2018-07-19T23:48:56.143Z,39.80
2018-07-19T23:51:25.054Z,39.90
2018-07-19T23:53:53.681Z,40.00
2018-07-19T23:56:22.876Z,40.10
2018-07-19T23:58:51.477Z,40.10
